Long Branch, Illinois
Current Conditions -  °F | °C
As of 10:35 PM on Wednesday 26 Nov 2014 (Local Time) from KHSB Reporting Station
Haze Haze  
Wind Chill: 33°   Ceiling: 1400
Heat Index: 33°   Visibility: 4mi
Dew Point: 33°   Wind: 3mph
Humidity: 100%   Direction: 320°NW
Pressure: 30.12"   Gusts: NA
Location:  37.8301°N, 88.6284°W
Report Text: KHSB 270435Z AUTO 32003KT 4SM BR SCT009 BKN014 OVC022 01/01 A3012 RMK AO2 P0001 T00050005
Loading
Personal Weather Stations






























Interactive Weather Map New forecast layout! Learn more

10-Day Weather Forecast

Advertisements
Track Severe Weather on mobile